createdAt,value
2023-01-17T00:01:51.002Z,14.14
2023-01-17T00:06:47.207Z,16.580000000000002
2023-01-17T00:12:01.546Z,17.18
2023-01-17T00:17:06.655Z,13.780000000000001
2023-01-17T00:22:07.914Z,13.64
2023-01-17T00:27:04.197Z,11.88
2023-01-17T00:32:00.432Z,13.3
2023-01-17T00:36:56.743Z,12.819999999999999
2023-01-17T00:41:53.019Z,12.14
2023-01-17T00:46:49.271Z,13.66
2023-01-17T00:51:45.447Z,13.14
2023-01-17T00:56:41.704Z,10.34
2023-01-17T01:01:38.196Z,13.26
2023-01-17T01:06:36.265Z,11.98
2023-01-17T01:11:32.543Z,11.36
2023-01-17T01:16:30.820Z,13.14
2023-01-17T01:21:27.007Z,11.48
2023-01-17T01:26:23.279Z,10.540000000000001
2023-01-17T01:31:19.598Z,9.120000000000001
2023-01-17T01:36:15.779Z,9.54
2023-01-17T01:41:14.065Z,12.179999999999998
2023-01-17T01:46:11.310Z,9.5
2023-01-17T01:51:09.635Z,10.56
2023-01-17T01:56:09.853Z,5.74
2023-01-17T02:01:08.234Z,9.580000000000002
2023-01-17T02:06:08.306Z,8.48
2023-01-17T02:11:04.592Z,7.8199999999999985
2023-01-17T02:16:06.917Z,10.52
2023-01-17T02:21:18.071Z,9.059999999999999
2023-01-17T02:26:31.272Z,8.8
2023-01-17T02:31:33.547Z,10.419999999999998
2023-01-17T02:36:36.815Z,9.94
2023-01-17T02:41:35.985Z,6.7
2023-01-17T02:46:32.285Z,7.280000000000001
2023-01-17T02:51:49.561Z,9.02
2023-01-17T02:56:56.692Z,5.46
2023-01-17T03:02:05.165Z,8.16
2023-01-17T03:07:07.169Z,22.080000000000002
2023-01-17T03:12:04.461Z,9.979999999999999
2023-01-17T03:17:02.671Z,11.22
2023-01-17T03:21:58.939Z,9.639999999999999
2023-01-17T03:26:55.197Z,11.58
2023-01-17T03:31:51.477Z,7.779999999999999
2023-01-17T03:36:47.766Z,7.7
2023-01-17T03:41:43.982Z,7.779999999999999
2023-01-17T03:46:44.250Z,7.32
2023-01-17T03:51:40.476Z,5.82
2023-01-17T03:56:36.739Z,10.34
2023-01-17T04:01:33.175Z,8.38
2023-01-17T04:06:29.299Z,9.98
2023-01-17T04:11:25.551Z,11.040000000000001
2023-01-17T04:16:25.827Z,13.7
2023-01-17T04:21:22.049Z,10.78
2023-01-17T04:26:18.291Z,11.98
2023-01-17T04:31:15.684Z,15.780000000000001
2023-01-17T04:36:11.846Z,12.16
2023-01-17T04:41:08.107Z,11.099999999999998
2023-01-17T04:46:04.401Z,8.34
2023-01-17T04:51:00.610Z,14.560000000000002
2023-01-17T04:55:56.860Z,7.58
2023-01-17T05:00:53.227Z,8.6
2023-01-17T05:05:49.371Z,8.16
2023-01-17T05:10:45.623Z,9.78
2023-01-17T05:15:41.939Z,7.619999999999999
2023-01-17T05:20:38.162Z,9.42
2023-01-17T05:25:34.444Z,10.72
2023-01-17T05:30:31.673Z,11.28
2023-01-17T05:35:28.949Z,11.040000000000001
2023-01-17T05:40:26.210Z,8.5
2023-01-17T05:45:22.428Z,7.540000000000001
2023-01-17T05:50:19.713Z,6.859999999999999
2023-01-17T05:55:15.958Z,8.919999999999998
2023-01-17T06:00:13.197Z,5.520000000000001
2023-01-17T06:05:09.468Z,3.9599999999999995
2023-01-17T06:10:05.708Z,5.779999999999999
2023-01-17T06:15:01.997Z,4.9799999999999995
2023-01-17T06:19:58.217Z,10.2
2023-01-17T06:24:54.490Z,8.46
2023-01-17T06:29:50.793Z,12.54
2023-01-17T06:34:47.024Z,12.100000000000001
2023-01-17T06:39:43.270Z,10.64
2023-01-17T06:44:40.619Z,23.339999999999996
2023-01-17T06:49:36.782Z,17.16
2023-01-17T06:54:33.079Z,12.98
2023-01-17T06:59:29.359Z,8.58
2023-01-17T07:04:25.570Z,14.559999999999999
2023-01-17T07:09:21.868Z,15.680000000000001
2023-01-17T07:14:18.092Z,17.939999999999998
2023-01-17T07:19:14.338Z,23.640000000000004
2023-01-17T07:24:10.593Z,23.259999999999998
2023-01-17T07:29:06.919Z,14.819999999999999
2023-01-17T07:34:03.125Z,11.440000000000001
2023-01-17T07:38:59.382Z,10.34
2023-01-17T07:43:56.432Z,9.92
2023-01-17T07:48:54.316Z,9.66
2023-01-17T07:53:50.165Z,12.060000000000002
2023-01-17T07:58:46.406Z,13.9
2023-01-17T08:03:43.722Z,17.82
2023-01-17T08:08:39.912Z,22.2
2023-01-17T08:13:37.186Z,9.42
2023-01-17T08:18:33.631Z,37.1
2023-01-17T08:23:29.762Z,40.36
2023-01-17T08:28:27.985Z,13.919999999999998
2023-01-17T08:33:24.265Z,16.18
2023-01-17T08:38:24.531Z,13.779999999999998
2023-01-17T08:43:25.758Z,15.820000000000002
2023-01-17T08:48:21.965Z,14.38
2023-01-17T08:53:18.238Z,7.779999999999999
2023-01-17T08:58:14.491Z,7.640000000000001
2023-01-17T09:03:12.019Z,9.080000000000002
2023-01-17T09:08:08.045Z,10.5
2023-01-17T09:13:05.296Z,8.62
2023-01-17T09:18:01.557Z,10.52
2023-01-17T09:22:57.806Z,7.06
2023-01-17T09:27:54.098Z,4.9
2023-01-17T09:32:52.292Z,9.74
2023-01-17T09:37:49.580Z,8.940000000000001
2023-01-17T09:42:53.863Z,11.700000000000001
2023-01-17T09:47:54.067Z,8.36
2023-01-17T09:52:54.328Z,10.639999999999999
2023-01-17T09:58:00.653Z,11.04
2023-01-17T10:03:13.857Z,12.620000000000001
2023-01-17T10:08:19.999Z,7.5
2023-01-17T10:13:25.264Z,8.14
2023-01-17T10:18:34.489Z,15.459999999999999
2023-01-17T10:23:46.680Z,12.44
2023-01-17T10:33:53.167Z,11.16
2023-01-17T10:38:51.437Z,11.58
2023-01-17T10:49:10.869Z,11.739999999999998
2023-01-17T10:54:19.130Z,4.38
2023-01-17T10:59:17.411Z,6.82
2023-01-17T11:04:15.622Z,14.680000000000001
2023-01-17T11:09:20.889Z,5.9
2023-01-17T11:14:19.374Z,5.5600000000000005
2023-01-17T11:19:17.409Z,10.4
2023-01-17T11:24:18.586Z,8.620000000000001
2023-01-17T11:29:15.848Z,18.220000000000002
2023-01-17T11:34:15.183Z,12.42
2023-01-17T11:39:23.348Z,7.9
2023-01-17T11:44:24.206Z,14.719999999999999
2023-01-17T11:49:23.881Z,11.98
2023-01-17T11:54:23.111Z,5.32
2023-01-17T11:59:24.346Z,6.26
2023-01-17T12:04:38.615Z,8.7
2023-01-17T12:09:42.785Z,11.4
2023-01-17T12:14:50.020Z,9.540000000000001
2023-01-17T12:19:57.286Z,18.259999999999998
2023-01-17T12:25:11.456Z,12.4
2023-01-17T12:30:23.727Z,19.22
2023-01-17T12:35:25.994Z,16.82
2023-01-17T12:40:29.198Z,24.72
2023-01-17T12:45:31.470Z,17.439999999999998
2023-01-17T12:50:37.672Z,31.5
2023-01-17T12:55:41.919Z,25.080000000000002
2023-01-17T12:59:17.368Z,14.559999999999999
2023-01-17T13:04:19.686Z,18.1
2023-01-17T13:09:26.080Z,15.4
2023-01-17T13:14:22.152Z,15.7
2023-01-17T13:19:23.387Z,20.479999999999997
2023-01-17T13:24:27.625Z,28.639999999999997
2023-01-17T13:29:33.888Z,35.5
2023-01-17T13:34:45.093Z,46.12
2023-01-17T13:39:51.263Z,51.04
2023-01-17T13:44:47.579Z,32.06
2023-01-17T13:49:52.791Z,82.84
2023-01-17T14:00:05.248Z,56.379999999999995
2023-01-17T14:05:12.676Z,111.42
2023-01-17T14:10:21.750Z,34.519999999999996
2023-01-17T14:15:21.010Z,75.03999999999999
2023-01-17T14:20:28.174Z,29.4
2023-01-17T14:25:29.433Z,48.040000000000006
2023-01-17T14:30:28.709Z,53.94000000000001
2023-01-17T14:35:26.944Z,34.58
2023-01-17T14:40:24.238Z,81.72
2023-01-17T14:45:23.444Z,59.92
2023-01-17T14:50:21.837Z,38.260000000000005
2023-01-17T14:55:19.989Z,18.22
2023-01-17T15:00:18.247Z,26.48
2023-01-17T15:05:15.469Z,44.36
2023-01-17T15:10:15.788Z,38.339999999999996
2023-01-17T15:15:26.083Z,36.14
2023-01-17T15:20:25.215Z,67.4
2023-01-17T15:25:21.514Z,40.62
2023-01-17T15:30:18.719Z,38.160000000000004
2023-01-17T15:35:15.988Z,82.47999999999999
2023-01-17T15:40:16.282Z,95.94000000000001
2023-01-17T15:45:15.495Z,98.82000000000001
2023-01-17T15:50:25.737Z,82.86
2023-01-17T15:55:22.439Z,74.66
2023-01-17T16:00:20.334Z,55.8
2023-01-17T16:05:26.487Z,167.78000000000003
2023-01-17T16:10:24.713Z,413.16
2023-01-17T16:15:21.994Z,339.06
2023-01-17T16:20:20.249Z,430.18
2023-01-17T16:25:17.471Z,316.8
2023-01-17T16:30:14.771Z,204.24
2023-01-17T16:35:13.988Z,117.73999999999998
2023-01-17T16:40:11.804Z,121.94000000000001
2023-01-17T16:45:08.595Z,89.74
2023-01-17T16:50:04.769Z,38.92
2023-01-17T16:55:01.078Z,34.239999999999995
2023-01-17T16:59:57.284Z,25.82
2023-01-17T17:04:53.568Z,29.1
2023-01-17T17:09:50.378Z,13.38
2023-01-17T17:14:47.075Z,20.44
2023-01-17T17:19:43.293Z,7.5200000000000005
2023-01-17T17:24:39.595Z,12.459999999999999
2023-01-17T17:29:36.827Z,10.040000000000001
2023-01-17T17:34:33.078Z,7.160000000000001
2023-01-17T17:39:29.360Z,10.98
2023-01-17T17:44:25.614Z,8.319999999999999
2023-01-17T17:49:21.865Z,6.2
2023-01-17T17:54:19.120Z,9.940000000000001
2023-01-17T17:59:16.367Z,8.48
2023-01-17T18:04:12.802Z,10.940000000000001
2023-01-17T18:09:11.257Z,15.26
2023-01-17T18:14:08.160Z,8.680000000000001
2023-01-17T18:19:04.422Z,12.459999999999999
2023-01-17T18:24:01.688Z,9.26
2023-01-17T18:28:58.935Z,13.060000000000002
2023-01-17T18:33:56.218Z,9.2
2023-01-17T18:38:52.447Z,6.56
2023-01-17T18:43:48.751Z,9.139999999999999
2023-01-17T18:48:44.973Z,10.22
2023-01-17T18:53:42.219Z,11.419999999999998
2023-01-17T18:58:39.489Z,10.139999999999999
2023-01-17T19:03:37.013Z,10.34
2023-01-17T19:08:33.996Z,8.7
2023-01-17T19:13:31.284Z,11.1
2023-01-17T19:18:27.563Z,8.040000000000001
2023-01-17T19:23:23.798Z,9.180000000000001
2023-01-17T19:28:20.022Z,9.120000000000001
2023-01-17T19:33:16.298Z,12.000000000000002
2023-01-17T19:38:15.567Z,9.2
2023-01-17T19:43:11.896Z,8.860000000000001
2023-01-17T19:48:08.070Z,10.52
2023-01-17T19:53:03.330Z,10.459999999999999
2023-01-17T19:58:01.581Z,10.24
2023-01-17T20:02:57.879Z,13.14
2023-01-17T20:07:54.537Z,9.74
2023-01-17T20:12:51.362Z,11.5
2023-01-17T20:17:47.630Z,9.4
2023-01-17T20:22:44.956Z,6.82
2023-01-17T20:27:41.128Z,7.140000000000001
2023-01-17T20:32:36.420Z,5.9799999999999995
2023-01-17T20:37:32.645Z,8.120000000000001
2023-01-17T20:42:29.900Z,8.1
2023-01-17T20:47:26.180Z,9.64
2023-01-17T20:52:22.459Z,7.279999999999999
2023-01-17T20:57:19.302Z,7.540000000000001
2023-01-17T21:02:16.055Z,10.540000000000001
2023-01-17T21:07:13.225Z,5.62
2023-01-17T21:12:09.448Z,7.9
2023-01-17T21:17:05.743Z,9.74
2023-01-17T21:22:01.991Z,9.499999999999998
2023-01-17T21:26:59.285Z,8.28
2023-01-17T21:31:56.488Z,8.540000000000001
2023-01-17T21:36:53.781Z,8.06
2023-01-17T21:41:51.113Z,7.68
2023-01-17T21:46:49.186Z,9.3
2023-01-17T21:51:46.585Z,5.74
2023-01-17T21:56:43.819Z,7.140000000000001
2023-01-17T22:01:44.176Z,6.08
2023-01-17T22:06:40.290Z,8.919999999999998
2023-01-17T22:11:37.553Z,9.5
2023-01-17T22:16:34.806Z,9.040000000000001
2023-01-17T22:21:34.084Z,6.94
2023-01-17T22:26:33.343Z,7.659999999999999
2023-01-17T22:31:29.565Z,8.239999999999998
2023-01-17T22:36:30.831Z,6.88
2023-01-17T22:41:32.169Z,7.12
2023-01-17T22:46:31.436Z,5.459999999999999
2023-01-17T22:51:27.625Z,4.3
2023-01-17T22:56:28.840Z,7.839999999999999
2023-01-17T23:01:26.172Z,6.4
2023-01-17T23:06:23.358Z,8.879999999999999
2023-01-17T23:11:22.597Z,7.2
2023-01-17T23:16:18.906Z,6.8
2023-01-17T23:21:15.126Z,9.440000000000001
2023-01-17T23:26:11.396Z,7.959999999999999
2023-01-17T23:31:08.726Z,5.14
2023-01-17T23:36:05.897Z,5.52
2023-01-17T23:41:04.192Z,6.0600000000000005
2023-01-17T23:46:00.442Z,3.44
2023-01-17T23:50:57.663Z,3.4
2023-01-17T23:55:53.940Z,3.2399999999999998
